createdAt,value
2022-09-28T01:00:49.839Z,90.36
2022-09-28T01:03:17.973Z,90.49
2022-09-28T01:05:47.240Z,90.49
2022-09-28T01:08:17.725Z,90.64
2022-09-28T01:10:45.904Z,90.97
2022-09-28T01:13:15.995Z,90.95
2022-09-28T01:15:54.715Z,91.23
2022-09-28T01:18:54.000Z,91.50
2022-09-28T01:21:26.357Z,91.43
2022-09-28T01:24:11.439Z,91.42
2022-09-28T01:26:54.637Z,91.40
2022-09-28T01:29:28.906Z,91.43
2022-09-28T01:32:06.244Z,91.39
2022-09-28T01:34:44.450Z,91.47
2022-09-28T01:37:16.930Z,91.32
2022-09-28T01:39:49.123Z,91.58
2022-09-28T01:42:28.820Z,91.82
2022-09-28T01:45:04.121Z,92.26
2022-09-28T01:47:38.094Z,92.31
2022-09-28T01:50:19.700Z,92.35
2022-09-28T01:53:21.052Z,93.02
2022-09-28T01:55:56.655Z,93.16
2022-09-28T01:58:39.641Z,93.14
2022-09-28T02:01:26.941Z,93.34
2022-09-28T02:04:27.176Z,93.26
2022-09-28T02:07:06.679Z,93.52
2022-09-28T02:09:42.889Z,93.75
2022-09-28T02:12:21.086Z,93.87
2022-09-28T02:14:52.935Z,93.70
2022-09-28T02:17:21.606Z,93.46
2022-09-28T02:19:49.904Z,93.46
2022-09-28T02:22:32.716Z,93.62
2022-09-28T02:25:11.153Z,93.68
2022-09-28T02:27:54.608Z,93.64
2022-09-28T02:30:22.892Z,93.60
2022-09-28T02:32:57.258Z,93.95
2022-09-28T02:35:25.475Z,94.12
2022-09-28T02:37:55.289Z,94.12
2022-09-28T02:40:29.248Z,93.85
2022-09-28T02:43:00.299Z,93.70
2022-09-28T02:45:34.858Z,93.79
2022-09-28T02:48:43.195Z,94.13
2022-09-28T02:51:49.156Z,94.15
2022-09-28T02:54:37.684Z,94.12
2022-09-28T02:57:18.029Z,94.22
2022-09-28T03:00:02.264Z,94.05
2022-09-28T03:02:59.689Z,93.87
2022-09-28T03:05:45.673Z,93.96
2022-09-28T03:08:22.508Z,94.10
2022-09-28T03:10:59.737Z,94.32
2022-09-28T03:13:29.164Z,94.73
2022-09-28T03:16:20.005Z,94.94
2022-09-28T03:18:49.652Z,94.84
2022-09-28T03:21:17.747Z,94.69
2022-09-28T03:23:47.432Z,94.42
2022-09-28T03:26:18.115Z,94.28
2022-09-28T03:28:46.307Z,94.33
2022-09-28T03:31:17.599Z,94.10
2022-09-28T03:33:45.566Z,94.29
2022-09-28T03:36:15.185Z,94.41
2022-09-28T03:38:43.313Z,94.25
2022-09-28T03:41:11.685Z,94.23
2022-09-28T03:43:41.811Z,94.29
2022-09-28T03:46:09.981Z,94.54
2022-09-28T03:48:41.900Z,94.74
2022-09-28T03:51:12.446Z,94.72
2022-09-28T03:53:40.688Z,94.88
2022-09-28T03:56:12.807Z,95.07
2022-09-28T03:58:41.078Z,95.24
2022-09-28T04:01:16.493Z,95.23
2022-09-28T04:03:46.693Z,95.05
2022-09-28T04:06:14.862Z,95.20
2022-09-28T04:08:43.633Z,95.21
2022-09-28T04:11:12.103Z,95.16
2022-09-28T04:13:40.029Z,95.18
2022-09-28T04:16:11.835Z,95.11
2022-09-28T04:18:42.611Z,95.40
2022-09-28T04:21:38.348Z,95.26
2022-09-28T04:24:11.544Z,95.22
2022-09-28T04:26:39.791Z,95.40
2022-09-28T04:29:16.165Z,95.54
2022-09-28T04:31:51.237Z,95.53
2022-09-28T04:34:22.494Z,95.44
2022-09-28T04:36:51.263Z,95.94
2022-09-28T04:39:19.744Z,95.94
2022-09-28T04:41:50.546Z,96.02
2022-09-28T04:44:18.582Z,95.87
2022-09-28T04:46:48.159Z,95.95
2022-09-28T04:49:31.414Z,95.88
2022-09-28T04:52:06.411Z,95.71
2022-09-28T04:54:36.147Z,95.61
2022-09-28T04:57:06.282Z,95.44
2022-09-28T04:59:34.552Z,95.46
2022-09-28T05:02:02.624Z,95.43
2022-09-28T05:04:49.703Z,95.29
2022-09-28T05:07:36.317Z,95.09
2022-09-28T05:10:06.501Z,95.12
2022-09-28T05:12:34.788Z,94.92
2022-09-28T05:15:02.754Z,94.70
2022-09-28T05:17:31.867Z,94.73
2022-09-28T05:20:20.090Z,94.65
2022-09-28T05:22:48.261Z,94.44
2022-09-28T05:25:16.373Z,94.28
2022-09-28T05:28:03.468Z,94.15
2022-09-28T05:31:02.289Z,94.16
2022-09-28T05:33:51.028Z,93.98
2022-09-28T05:36:19.760Z,93.92
2022-09-28T05:38:47.778Z,93.98
2022-09-28T05:41:15.663Z,93.82
2022-09-28T05:43:45.764Z,93.67
2022-09-28T05:46:14.684Z,93.57
2022-09-28T05:48:43.029Z,93.29
2022-09-28T05:51:10.944Z,92.97
2022-09-28T05:53:39.158Z,93.00
2022-09-28T05:56:07.244Z,92.85
2022-09-28T05:58:37.624Z,92.86
2022-09-28T06:01:05.648Z,92.66
2022-09-28T06:03:33.732Z,92.40
2022-09-28T06:06:02.764Z,92.31
2022-09-28T06:08:32.999Z,91.96
2022-09-28T06:11:33.126Z,91.42
2022-09-28T06:14:06.209Z,90.92
2022-09-28T06:16:35.087Z,90.64
2022-09-28T06:19:03.245Z,90.42
2022-09-28T06:21:49.224Z,90.57
2022-09-28T06:24:17.313Z,90.63
2022-09-28T06:26:45.399Z,89.85
2022-09-28T06:29:19.740Z,89.95
2022-09-28T06:31:48.335Z,90.08
2022-09-28T06:34:17.745Z,90.09
2022-09-28T06:36:46.008Z,89.90
2022-09-28T06:39:14.072Z,89.20
2022-09-28T06:41:42.220Z,88.65
2022-09-28T06:44:16.131Z,88.05
2022-09-28T06:47:16.547Z,87.57
2022-09-28T06:50:12.414Z,87.11
2022-09-28T06:53:09.662Z,87.01
2022-09-28T06:55:50.235Z,87.21
2022-09-28T06:58:21.259Z,87.46
2022-09-28T07:00:52.077Z,87.41
2022-09-28T07:03:22.437Z,87.00
2022-09-28T07:06:11.580Z,86.45
2022-09-28T07:08:39.849Z,85.98
2022-09-28T07:11:27.053Z,85.71
2022-09-28T07:14:24.837Z,85.17
2022-09-28T07:17:13.238Z,84.53
2022-09-28T07:19:43.290Z,83.96
2022-09-28T07:22:18.598Z,83.71
2022-09-28T07:24:48.770Z,81.95
2022-09-28T07:27:29.168Z,81.62
2022-09-28T07:30:16.675Z,81.28
2022-09-28T07:33:06.220Z,79.59
2022-09-28T07:35:42.150Z,77.80
2022-09-28T07:38:11.293Z,77.96
2022-09-28T07:40:57.652Z,78.45
2022-09-28T07:43:26.908Z,77.61
2022-09-28T07:45:55.015Z,76.04
2022-09-28T07:48:23.301Z,76.47
2022-09-28T07:51:21.312Z,77.30
2022-09-28T07:54:01.992Z,72.78
2022-09-28T07:56:46.230Z,72.54
2022-09-28T07:59:23.439Z,71.21
2022-09-28T08:02:10.974Z,63.77
2022-09-28T08:04:40.501Z,62.82
2022-09-28T08:07:10.707Z,64.23
2022-09-28T08:09:38.860Z,64.10
2022-09-28T08:12:22.036Z,62.06
2022-09-28T08:15:11.668Z,63.72
2022-09-28T08:17:51.228Z,63.19
2022-09-28T08:20:39.979Z,63.30
2022-09-28T08:23:09.267Z,61.28
2022-09-28T08:25:38.901Z,59.75
2022-09-28T08:28:08.021Z,60.13
2022-09-28T08:30:46.856Z,59.68
2022-09-28T08:33:28.259Z,59.20
2022-09-28T08:36:28.752Z,58.57
2022-09-28T08:39:02.912Z,58.39
2022-09-28T08:42:06.102Z,56.50
2022-09-28T08:45:15.408Z,56.58
2022-09-28T08:48:23.997Z,53.87
2022-09-28T08:51:18.499Z,52.40
2022-09-28T08:54:22.600Z,53.88
2022-09-28T08:57:18.285Z,54.13
2022-09-28T08:59:53.509Z,52.31
2022-09-28T09:02:43.338Z,53.13
2022-09-28T09:05:20.249Z,53.77
2022-09-28T09:08:41.669Z,52.64
2022-09-28T09:11:50.822Z,52.73
2022-09-28T09:15:02.243Z,51.60
2022-09-28T09:17:59.683Z,52.14
2022-09-28T09:20:59.093Z,50.76
2022-09-28T09:23:53.209Z,49.92
2022-09-28T09:26:35.057Z,48.40
2022-09-28T09:29:16.602Z,48.30
2022-09-28T09:32:23.775Z,48.25
2022-09-28T09:34:58.915Z,46.79
2022-09-28T09:37:48.087Z,46.67
2022-09-28T09:41:07.902Z,47.74
2022-09-28T09:44:48.955Z,49.50
2022-09-28T09:47:49.395Z,49.49
2022-09-28T09:50:46.543Z,49.89
2022-09-28T09:53:22.422Z,49.75
2022-09-28T09:55:57.443Z,50.27
2022-09-28T09:58:38.850Z,50.36
2022-09-28T10:01:20.032Z,49.91
2022-09-28T10:04:16.043Z,49.99
2022-09-28T10:06:45.253Z,50.56
2022-09-28T10:09:42.547Z,50.12
2022-09-28T10:12:31.196Z,49.32
2022-09-28T10:15:03.012Z,48.77
2022-09-28T10:17:35.672Z,49.62
2022-09-28T10:20:23.257Z,49.59
2022-09-28T10:23:02.144Z,48.42
2022-09-28T10:25:34.112Z,47.61
2022-09-28T10:28:06.344Z,46.73
2022-09-28T10:30:44.485Z,47.19
2022-09-28T10:33:34.155Z,46.98
2022-09-28T10:36:07.066Z,46.57
2022-09-28T10:38:35.743Z,45.28
2022-09-28T10:41:11.724Z,46.21
2022-09-28T10:44:06.457Z,46.06
2022-09-28T10:47:03.164Z,46.22
2022-09-28T10:49:47.017Z,46.84
2022-09-28T10:52:31.133Z,46.29
2022-09-28T10:54:59.546Z,46.73
2022-09-28T10:57:36.871Z,46.26
2022-09-28T11:00:30.370Z,46.09
2022-09-28T11:03:30.760Z,46.20
2022-09-28T11:06:06.036Z,46.70
2022-09-28T11:08:42.744Z,45.89
2022-09-28T11:11:16.653Z,45.70
2022-09-28T11:13:55.982Z,45.62
2022-09-28T11:16:30.631Z,45.14
2022-09-28T11:19:05.686Z,44.47
2022-09-28T11:21:44.074Z,44.50
2022-09-28T11:24:18.945Z,45.15
2022-09-28T11:27:00.366Z,44.16
2022-09-28T11:29:39.122Z,43.15
2022-09-28T11:32:41.361Z,43.33
2022-09-28T11:35:52.869Z,41.88
2022-09-28T11:39:01.280Z,39.87
2022-09-28T11:42:19.868Z,37.51
2022-09-28T11:44:49.504Z,36.95
2022-09-28T11:47:43.579Z,37.89
2022-09-28T11:50:26.596Z,36.78
2022-09-28T11:53:12.548Z,36.42
2022-09-28T11:55:46.169Z,36.52
2022-09-28T11:58:27.402Z,36.64
2022-09-28T12:01:18.601Z,36.79
2022-09-28T12:04:28.567Z,36.25
2022-09-28T12:07:03.974Z,36.90
2022-09-28T12:10:03.488Z,36.97
2022-09-28T12:12:39.411Z,38.27
2022-09-28T12:15:26.763Z,38.49
2022-09-28T12:18:00.980Z,37.11
2022-09-28T12:21:05.234Z,37.15
2022-09-28T12:23:37.036Z,36.38
2022-09-28T12:26:22.322Z,36.99
2022-09-28T12:28:56.980Z,36.64
2022-09-28T12:31:40.086Z,36.33
2022-09-28T12:34:10.193Z,36.74
2022-09-28T12:36:48.040Z,37.81
2022-09-28T12:39:53.589Z,39.00
2022-09-28T12:42:31.816Z,39.95
2022-09-28T12:45:05.421Z,40.43
2022-09-28T12:47:39.087Z,40.76
2022-09-28T12:50:38.460Z,41.33
2022-09-28T12:53:26.459Z,42.19
2022-09-28T12:56:07.095Z,42.82
2022-09-28T12:59:15.099Z,42.80
2022-09-28T13:02:24.238Z,43.10
2022-09-28T13:05:19.726Z,43.42
2022-09-28T13:08:14.005Z,43.48
2022-09-28T13:10:52.879Z,43.83
2022-09-28T13:13:29.519Z,44.27
2022-09-28T13:16:13.950Z,44.12
2022-09-28T13:19:18.897Z,43.10
2022-09-28T13:22:07.581Z,43.44
2022-09-28T13:24:45.173Z,43.39
2022-09-28T13:27:40.450Z,43.82
2022-09-28T13:30:23.521Z,44.67
2022-09-28T13:32:54.705Z,45.21
2022-09-28T13:35:23.617Z,44.94
2022-09-28T13:38:23.504Z,45.18
2022-09-28T13:41:06.927Z,45.04
2022-09-28T13:43:42.897Z,44.43
2022-09-28T13:46:21.810Z,41.95
2022-09-28T13:48:58.907Z,41.20
2022-09-28T13:51:48.150Z,41.71
2022-09-28T13:54:43.083Z,42.51
2022-09-28T13:57:20.880Z,42.46
2022-09-28T14:00:12.089Z,42.79
2022-09-28T14:03:06.710Z,42.75
2022-09-28T14:05:44.448Z,42.74
2022-09-28T14:08:34.756Z,42.96
2022-09-28T14:11:24.832Z,42.26
2022-09-28T14:14:02.237Z,42.07
2022-09-28T14:16:32.444Z,41.63
2022-09-28T14:19:17.293Z,41.83
2022-09-28T14:21:45.290Z,42.94
2022-09-28T14:24:37.419Z,42.97
2022-09-28T14:27:11.204Z,42.35
2022-09-28T14:29:39.824Z,42.83
2022-09-28T14:32:10.959Z,46.79
2022-09-28T14:34:45.439Z,49.53
2022-09-28T14:37:58.281Z,51.01
2022-09-28T14:40:50.260Z,51.94
2022-09-28T14:43:24.264Z,52.41
2022-09-28T14:46:14.969Z,52.97
2022-09-28T14:49:05.052Z,53.52
2022-09-28T14:51:35.259Z,53.01
2022-09-28T14:54:14.271Z,53.30
2022-09-28T14:56:57.360Z,53.24
2022-09-28T14:59:30.440Z,53.44
2022-09-28T15:02:06.302Z,53.66
2022-09-28T15:04:39.247Z,53.49
2022-09-28T15:07:29.761Z,53.58
2022-09-28T15:10:00.229Z,53.02
2022-09-28T15:12:31.936Z,53.68
2022-09-28T15:15:02.825Z,53.88
2022-09-28T15:17:39.695Z,54.33
2022-09-28T15:20:30.487Z,54.81
2022-09-28T15:23:00.142Z,54.91
2022-09-28T15:25:30.652Z,55.19
2022-09-28T15:28:17.571Z,55.42
2022-09-28T15:30:45.795Z,55.92
2022-09-28T15:33:47.059Z,55.90
2022-09-28T15:36:22.397Z,56.11
2022-09-28T15:39:20.861Z,56.21
2022-09-28T15:41:51.156Z,56.27
2022-09-28T15:44:29.580Z,56.82
2022-09-28T15:47:14.050Z,57.25
2022-09-28T15:50:02.700Z,57.54
2022-09-28T15:52:43.712Z,57.77
2022-09-28T15:55:19.850Z,57.98
2022-09-28T15:57:48.023Z,58.24
2022-09-28T16:00:26.980Z,58.37
2022-09-28T16:03:01.895Z,58.05
2022-09-28T16:05:42.534Z,57.68
2022-09-28T16:08:27.332Z,57.83
2022-09-28T16:11:04.657Z,58.13
2022-09-28T16:13:35.024Z,58.54
2022-09-28T16:16:03.035Z,59.41
2022-09-28T16:18:40.592Z,59.53
2022-09-28T16:21:36.841Z,60.04
2022-09-28T16:24:08.183Z,60.86
2022-09-28T16:26:39.427Z,61.11
2022-09-28T16:29:25.740Z,61.63
2022-09-28T16:31:54.593Z,62.38
2022-09-28T16:34:27.311Z,62.61
2022-09-28T16:36:55.644Z,62.79
2022-09-28T16:39:23.734Z,62.98
2022-09-28T16:41:56.076Z,62.96
2022-09-28T16:44:30.720Z,62.98
2022-09-28T16:47:00.846Z,63.11
2022-09-28T16:49:31.801Z,64.01
2022-09-28T16:52:01.280Z,64.20
2022-09-28T16:54:47.793Z,64.83
2022-09-28T16:57:17.475Z,65.23
2022-09-28T16:59:46.500Z,65.19
2022-09-28T17:02:45.746Z,65.62
2022-09-28T17:05:20.446Z,65.76
2022-09-28T17:08:03.361Z,65.73
2022-09-28T17:11:02.500Z,65.96
2022-09-28T17:13:34.007Z,66.12
2022-09-28T17:16:09.578Z,66.27
2022-09-28T17:18:42.343Z,66.31
2022-09-28T17:21:15.974Z,66.83
2022-09-28T17:23:49.206Z,67.02
2022-09-28T17:26:31.838Z,67.26
2022-09-28T17:29:01.963Z,67.06
2022-09-28T17:31:30.491Z,67.11
2022-09-28T17:33:58.592Z,67.05
2022-09-28T17:36:27.087Z,67.17
2022-09-28T17:38:55.107Z,67.56
2022-09-28T17:41:23.160Z,68.94
2022-09-28T17:43:51.076Z,69.40
2022-09-28T17:46:31.650Z,69.50
2022-09-28T17:49:02.181Z,70.07
2022-09-28T17:51:33.846Z,70.88
2022-09-28T17:54:02.389Z,72.10
2022-09-28T17:56:32.579Z,72.24
2022-09-28T17:59:04.887Z,72.65
2022-09-28T18:01:41.109Z,72.51
2022-09-28T18:04:23.085Z,72.91
2022-09-28T18:07:00.532Z,73.24
2022-09-28T18:09:28.611Z,73.63
2022-09-28T18:12:04.100Z,74.02
2022-09-28T18:14:32.956Z,73.48
2022-09-28T18:17:01.189Z,73.80
2022-09-28T18:19:32.117Z,74.68
2022-09-28T18:22:08.320Z,74.40
2022-09-28T18:24:36.421Z,74.54
2022-09-28T18:27:09.191Z,74.18
2022-09-28T18:29:37.537Z,74.02
2022-09-28T18:32:05.771Z,74.05
2022-09-28T18:34:37.737Z,74.19
2022-09-28T18:37:06.197Z,74.74
2022-09-28T18:39:40.684Z,74.43
2022-09-28T18:42:23.717Z,74.13
2022-09-28T18:44:57.258Z,74.19
2022-09-28T18:47:25.757Z,73.93
2022-09-28T18:49:54.202Z,74.06
2022-09-28T18:52:22.184Z,74.06
2022-09-28T18:54:50.852Z,74.23
2022-09-28T18:57:19.360Z,74.49
2022-09-28T18:59:47.480Z,74.82
2022-09-28T19:02:15.617Z,75.24
2022-09-28T19:04:44.204Z,75.39
2022-09-28T19:07:19.299Z,75.20
2022-09-28T19:09:47.248Z,75.36
2022-09-28T19:12:15.208Z,75.23
2022-09-28T19:14:43.147Z,75.04
2022-09-28T19:17:12.013Z,75.23
2022-09-28T19:19:42.740Z,75.07
2022-09-28T19:22:12.471Z,74.87
2022-09-28T19:24:40.652Z,75.28
2022-09-28T19:27:08.671Z,75.47
2022-09-28T19:29:36.549Z,75.43
2022-09-28T19:32:04.549Z,75.41
2022-09-28T19:34:32.484Z,75.48
2022-09-28T19:37:03.863Z,75.47
2022-09-28T19:39:32.381Z,75.75
2022-09-28T19:42:01.596Z,75.89
2022-09-28T19:44:29.963Z,75.97
2022-09-28T19:47:10.193Z,75.73
2022-09-28T19:49:40.736Z,76.49
2022-09-28T19:52:17.691Z,76.27
2022-09-28T19:54:57.320Z,76.07
2022-09-28T19:57:30.997Z,75.75
2022-09-28T20:00:03.545Z,75.74
2022-09-28T20:02:35.594Z,76.05
2022-09-28T20:05:03.999Z,76.03
2022-09-28T20:07:33.510Z,76.21
2022-09-28T20:10:01.497Z,76.22
2022-09-28T20:12:29.453Z,76.42
2022-09-28T20:14:57.921Z,76.34
2022-09-28T20:17:25.960Z,76.09
2022-09-28T20:19:54.227Z,76.28
2022-09-28T20:22:22.226Z,76.26
2022-09-28T20:24:50.198Z,76.61
2022-09-28T20:27:18.373Z,77.18
2022-09-28T20:29:46.449Z,77.45
2022-09-28T20:32:14.313Z,77.65
2022-09-28T20:34:42.318Z,77.78
2022-09-28T20:37:12.579Z,77.64
2022-09-28T20:39:44.774Z,77.23
2022-09-28T20:42:15.619Z,77.01
2022-09-28T20:44:43.869Z,77.16
2022-09-28T20:47:12.037Z,78.26
2022-09-28T20:49:40.291Z,78.89
2022-09-28T20:52:09.006Z,78.51
2022-09-28T20:54:38.221Z,77.80
2022-09-28T20:57:17.467Z,77.34
2022-09-28T20:59:53.761Z,77.33
2022-09-28T21:02:22.911Z,77.22
2022-09-28T21:04:51.179Z,77.36
2022-09-28T21:07:19.160Z,77.51
2022-09-28T21:09:47.250Z,77.60
2022-09-28T21:12:16.877Z,77.87
2022-09-28T21:14:44.825Z,77.84
2022-09-28T21:17:14.229Z,78.15
2022-09-28T21:19:49.472Z,78.12
2022-09-28T21:22:17.579Z,78.10
2022-09-28T21:24:45.471Z,78.00
2022-09-28T21:27:13.620Z,78.03
2022-09-28T21:29:41.539Z,78.08
2022-09-28T21:32:09.407Z,78.37
2022-09-28T21:34:37.236Z,78.64
2022-09-28T21:37:05.726Z,78.84
2022-09-28T21:39:33.711Z,78.67
2022-09-28T21:42:01.683Z,78.62
2022-09-28T21:44:29.622Z,78.86
2022-09-28T21:46:57.641Z,78.97
2022-09-28T21:49:25.669Z,78.87
2022-09-28T21:51:53.633Z,78.96
2022-09-28T21:54:22.082Z,79.26
2022-09-28T21:56:50.058Z,78.95
2022-09-28T21:59:18.135Z,79.06
2022-09-28T22:01:46.354Z,78.83
2022-09-28T22:04:14.827Z,78.68
2022-09-28T22:06:42.779Z,78.91
2022-09-28T22:09:10.652Z,79.54
2022-09-28T22:11:38.656Z,79.83
2022-09-28T22:14:06.722Z,79.73
2022-09-28T22:16:34.763Z,79.87
2022-09-28T22:19:02.733Z,80.01
2022-09-28T22:21:33.432Z,80.21
2022-09-28T22:24:03.777Z,80.30
2022-09-28T22:26:33.713Z,80.19
2022-09-28T22:29:04.980Z,80.21
2022-09-28T22:31:36.034Z,80.21
2022-09-28T22:34:05.219Z,80.26
2022-09-28T22:36:33.993Z,80.37
2022-09-28T22:39:02.476Z,80.36
2022-09-28T22:41:30.566Z,80.71
2022-09-28T22:43:59.112Z,80.59
2022-09-28T22:46:29.429Z,80.37
2022-09-28T22:48:58.989Z,80.68
2022-09-28T22:51:29.185Z,80.35
2022-09-28T22:53:58.315Z,80.20
2022-09-28T22:56:27.067Z,80.32
2022-09-28T22:58:55.779Z,80.54
2022-09-28T23:01:27.232Z,80.88
2022-09-28T23:03:56.550Z,81.27
2022-09-28T23:06:26.482Z,81.39
2022-09-28T23:08:54.624Z,80.74
2022-09-28T23:11:22.691Z,80.68
2022-09-28T23:13:55.637Z,81.05
2022-09-28T23:16:25.851Z,80.86
2022-09-28T23:18:55.527Z,80.68
2022-09-28T23:21:26.313Z,81.18
2022-09-28T23:23:57.215Z,81.80
2022-09-28T23:26:28.376Z,81.71
2022-09-28T23:28:56.487Z,81.64
2022-09-28T23:31:28.135Z,81.65
2022-09-28T23:34:06.492Z,81.48
2022-09-28T23:36:34.647Z,81.39
2022-09-28T23:39:03.251Z,81.33
2022-09-28T23:41:31.188Z,81.31
2022-09-28T23:43:59.082Z,81.37
2022-09-28T23:46:27.284Z,81.14
2022-09-28T23:48:55.254Z,81.18
2022-09-28T23:51:23.138Z,81.26
2022-09-28T23:53:51.021Z,81.69
2022-09-28T23:56:19.009Z,82.24
2022-09-28T23:58:46.836Z,82.00
